createdAt,value
2019-03-01T00:02:06.792Z,100031.06
2019-03-01T00:06:11.501Z,100031.72
2019-03-01T00:10:01.683Z,100032.11
2019-03-01T00:14:07.953Z,100028.84
2019-03-01T00:18:19.430Z,100024.81
2019-03-01T00:21:31.328Z,100025.98
2019-03-01T00:25:24.568Z,100021.97
2019-03-01T00:28:58.184Z,100020.95
2019-03-01T00:32:51.720Z,100022.73
2019-03-01T00:36:06.649Z,100015.69
2019-03-01T00:39:34.193Z,100017.87
2019-03-01T00:43:24.505Z,100014.14
2019-03-01T00:46:14.454Z,100016.06
2019-03-01T00:49:04.218Z,100012.03
2019-03-01T00:51:54.289Z,100012.33
2019-03-01T00:54:44.629Z,100010.19
2019-03-01T00:57:34.155Z,100006.42
2019-03-01T01:00:32.887Z,100001.56
2019-03-01T01:03:22.452Z,100001.56
2019-03-01T01:06:12.446Z,99994.22
2019-03-01T01:09:02.327Z,99991.20
2019-03-01T01:11:53.751Z,99989.02
2019-03-01T01:14:43.401Z,99985.19
2019-03-01T01:17:33.202Z,99982.77
2019-03-01T01:20:23.441Z,99986.54
2019-03-01T01:23:13.355Z,99979.23
2019-03-01T01:26:03.291Z,99975.95
2019-03-01T01:28:52.816Z,99975.39
2019-03-01T01:31:42.826Z,99967.30
2019-03-01T01:34:33.263Z,99965.94
2019-03-01T01:37:23.522Z,99961.31
2019-03-01T01:40:13.417Z,99957.24
2019-03-01T01:43:03.101Z,99952.12
2019-03-01T01:45:53.178Z,99949.70
2019-03-01T01:48:43.380Z,99947.26
2019-03-01T01:51:32.970Z,99942.33
2019-03-01T01:54:23.208Z,99939.88
2019-03-01T01:57:12.976Z,99946.63
2019-03-01T02:00:02.565Z,99942.30
2019-03-01T02:02:54.099Z,99935.68
2019-03-01T02:05:44.178Z,99938.92
2019-03-01T02:08:33.866Z,99937.00
2019-03-01T02:11:24.625Z,99935.61
2019-03-01T02:14:14.252Z,99930.72
2019-03-01T02:17:04.105Z,99928.53
2019-03-01T02:19:54.562Z,99917.92
2019-03-01T02:22:44.813Z,99913.33
2019-03-01T02:25:34.611Z,99914.61
2019-03-01T02:28:24.553Z,99906.74
2019-03-01T02:31:15.787Z,99906.45
2019-03-01T02:34:05.920Z,99908.86
2019-03-01T02:36:55.577Z,99909.13
2019-03-01T02:39:45.404Z,99907.50
2019-03-01T02:42:35.518Z,99904.75
2019-03-01T02:45:25.727Z,99906.34
2019-03-01T02:48:15.206Z,99908.25
2019-03-01T02:51:05.152Z,99900.92
2019-03-01T02:53:55.264Z,99893.13
2019-03-01T02:56:45.163Z,99900.98
2019-03-01T02:59:34.866Z,99897.75
2019-03-01T03:02:24.739Z,99900.72
2019-03-01T03:05:14.779Z,99899.37
2019-03-01T03:08:09.124Z,99900.13
2019-03-01T03:10:59.299Z,99893.13
2019-03-01T03:13:49.209Z,99900.39
2019-03-01T03:16:40.683Z,99896.30
2019-03-01T03:19:30.789Z,99894.14
2019-03-01T03:22:20.358Z,99895.45
2019-03-01T03:25:10.416Z,99901.14
2019-03-01T03:28:00.229Z,99900.88
2019-03-01T03:30:50.451Z,99894.30
2019-03-01T03:33:40.261Z,99891.63
2019-03-01T03:36:29.848Z,99890.76
2019-03-01T03:39:20.280Z,99897.27
2019-03-01T03:42:10.663Z,99888.54
2019-03-01T03:45:00.408Z,99892.53
2019-03-01T03:47:50.812Z,99882.19
2019-03-01T03:50:40.681Z,99889.52
2019-03-01T03:53:30.527Z,99892.49
2019-03-01T03:56:20.624Z,99885.41
2019-03-01T03:59:10.941Z,99885.61
2019-03-01T04:02:00.975Z,99880.72
2019-03-01T04:04:51.379Z,99880.15
2019-03-01T04:07:41.713Z,99877.36
2019-03-01T04:10:31.490Z,99881.09
2019-03-01T04:13:21.413Z,99880.56
2019-03-01T04:16:11.263Z,99878.94
2019-03-01T04:19:01.248Z,99876.23
2019-03-01T04:21:52.078Z,99884.36
2019-03-01T04:24:42.250Z,99872.92
2019-03-01T04:27:32.147Z,99872.36
2019-03-01T04:30:22.501Z,99871.23
2019-03-01T04:33:12.294Z,99864.42
2019-03-01T04:36:02.333Z,99862.31
2019-03-01T04:38:51.949Z,99858.25
2019-03-01T04:41:41.550Z,99854.98
2019-03-01T04:44:31.120Z,99855.84
2019-03-01T04:47:20.985Z,99850.17
2019-03-01T04:50:12.091Z,99849.95
2019-03-01T04:53:02.130Z,99861.61
2019-03-01T04:55:52.560Z,99857.28
2019-03-01T04:58:42.272Z,99859.16
2019-03-01T05:01:31.844Z,99856.19
2019-03-01T05:04:21.645Z,99847.77
2019-03-01T05:07:11.417Z,99845.84
2019-03-01T05:10:01.665Z,99849.56
2019-03-01T05:12:51.479Z,99843.89
2019-03-01T05:15:41.483Z,99842.53
2019-03-01T05:18:31.876Z,99837.34
2019-03-01T05:21:21.764Z,99839.23
2019-03-01T05:24:11.525Z,99840.31
2019-03-01T05:27:01.239Z,99838.44
2019-03-01T05:29:50.309Z,99836.17
2019-03-01T05:32:40.199Z,99838.31
2019-03-01T05:35:30.118Z,99832.56
2019-03-01T05:38:22.029Z,99829.25
2019-03-01T05:41:12.379Z,99836.02
2019-03-01T05:44:02.039Z,99836.27
2019-03-01T05:46:51.778Z,99836.02
2019-03-01T05:49:41.517Z,99834.66
2019-03-01T05:52:31.624Z,99840.37
2019-03-01T05:55:22.078Z,99839.02
2019-03-01T05:58:35.964Z,99841.73
2019-03-01T06:01:34.874Z,99846.88
2019-03-01T06:04:37.853Z,99846.36
2019-03-01T06:08:35.779Z,99840.86
2019-03-01T06:11:53.156Z,99848.71
2019-03-01T06:15:03.812Z,99842.91
2019-03-01T06:18:35.996Z,99843.96
2019-03-01T06:22:11.760Z,99846.36
2019-03-01T06:25:31.726Z,99846.63
2019-03-01T06:28:58.696Z,99847.11
2019-03-01T06:32:21.139Z,99841.08
2019-03-01T06:35:48.375Z,99831.09
2019-03-01T06:39:35.773Z,99835.45
2019-03-01T06:43:07.687Z,99829.73
2019-03-01T06:46:33.553Z,99827.25
2019-03-01T06:49:28.340Z,99830.22
2019-03-01T06:52:20.388Z,99829.61
2019-03-01T06:55:26.174Z,99827.98
2019-03-01T06:58:36.763Z,99819.34
2019-03-01T07:01:37.334Z,99819.34
2019-03-01T07:04:26.991Z,99821.75
2019-03-01T07:07:16.648Z,99823.45
2019-03-01T07:10:07.258Z,99834.58
2019-03-01T07:12:57.301Z,99829.73
2019-03-01T07:15:47.303Z,99829.33
2019-03-01T07:18:37.110Z,99826.98
2019-03-01T07:21:27.172Z,99824.84
2019-03-01T07:24:17.109Z,99829.25
2019-03-01T07:27:07.329Z,99834.96
2019-03-01T07:29:57.353Z,99830.64
2019-03-01T07:32:48.239Z,99831.20
2019-03-01T07:35:38.079Z,99829.10
2019-03-01T07:38:27.838Z,99830.46
2019-03-01T07:41:17.819Z,99834.70
2019-03-01T07:44:08.946Z,99837.75
2019-03-01T07:46:59.136Z,99839.45
2019-03-01T07:49:48.969Z,99833.25
2019-03-01T07:52:38.369Z,99839.48
2019-03-01T07:55:29.461Z,99844.16
2019-03-01T07:58:21.663Z,99850.66
2019-03-01T08:01:11.739Z,99851.86
2019-03-01T08:04:01.555Z,99848.06
2019-03-01T08:06:51.581Z,99852.66
2019-03-01T08:09:44.922Z,99858.11
2019-03-01T08:12:33.598Z,99861.95
2019-03-01T08:15:23.654Z,99862.25
2019-03-01T08:18:13.849Z,99864.17
2019-03-01T08:21:06.286Z,99863.61
2019-03-01T08:23:55.386Z,99855.55
2019-03-01T08:26:46.176Z,99861.76
2019-03-01T08:29:36.202Z,99855.66
2019-03-01T08:32:27.483Z,99863.00
2019-03-01T08:35:17.623Z,99858.45
2019-03-01T08:38:07.861Z,99859.34
2019-03-01T08:40:57.150Z,99857.27
2019-03-01T08:43:48.160Z,99847.33
2019-03-01T08:46:42.122Z,99851.39
2019-03-01T08:49:31.269Z,99847.89
2019-03-01T08:52:21.083Z,99848.48
2019-03-01T08:55:13.578Z,99852.78
2019-03-01T08:58:06.857Z,99849.31
2019-03-01T09:00:59.685Z,99840.98
2019-03-01T09:03:52.749Z,99845.47
2019-03-01T09:06:42.753Z,99850.16
2019-03-01T09:09:32.239Z,99846.23
2019-03-01T09:12:22.006Z,99851.77
2019-03-01T09:15:14.098Z,99857.34
2019-03-01T09:18:03.564Z,99854.55
2019-03-01T09:20:53.329Z,99848.20
2019-03-01T09:23:43.112Z,99851.02
2019-03-01T09:26:32.704Z,99850.88
2019-03-01T09:29:22.849Z,99850.34
2019-03-01T09:32:12.649Z,99849.85
2019-03-01T09:35:24.129Z,99849.48
2019-03-01T09:38:14.023Z,99849.38
2019-03-01T09:41:04.545Z,99845.06
2019-03-01T09:43:59.558Z,99843.73
2019-03-01T09:46:48.678Z,99845.65
2019-03-01T09:49:38.547Z,99840.47
2019-03-01T09:52:28.739Z,99841.05
2019-03-01T09:55:18.728Z,99838.04
2019-03-01T09:58:08.820Z,99838.86
2019-03-01T10:01:04.841Z,99844.84
2019-03-01T10:03:56.163Z,99838.04
2019-03-01T10:06:45.739Z,99838.58
2019-03-01T10:09:36.205Z,99833.13
2019-03-01T10:12:26.207Z,99830.41
2019-03-01T10:15:16.088Z,99829.32
2019-03-01T10:18:05.999Z,99830.94
2019-03-01T10:20:55.890Z,99830.12
2019-03-01T10:23:45.450Z,99830.66
2019-03-01T10:26:36.635Z,99827.42
2019-03-01T10:29:26.822Z,99830.16
2019-03-01T10:32:16.995Z,99827.42
2019-03-01T10:35:08.560Z,99831.48
2019-03-01T10:37:58.530Z,99824.69
2019-03-01T10:40:48.605Z,99830.40
2019-03-01T10:43:38.454Z,99826.05
2019-03-01T10:46:28.278Z,99834.17
2019-03-01T10:49:18.166Z,99841.76
2019-03-01T10:52:08.089Z,99843.28
2019-03-01T10:54:57.802Z,99842.66
2019-03-01T10:57:48.226Z,99842.33
2019-03-01T11:00:38.269Z,99848.78
2019-03-01T11:03:27.770Z,99841.37
2019-03-01T11:06:17.531Z,99845.42
2019-03-01T11:09:09.071Z,99843.53
2019-03-01T11:11:59.326Z,99835.67
2019-03-01T11:14:49.054Z,99836.76
2019-03-01T11:17:39.028Z,99833.79
2019-03-01T11:20:29.215Z,99830.27
2019-03-01T11:23:19.188Z,99828.92
2019-03-01T11:26:09.271Z,99829.75
2019-03-01T11:28:59.111Z,99832.73
2019-03-01T11:31:49.134Z,99833.26
2019-03-01T11:34:38.901Z,99837.03
2019-03-01T11:37:28.988Z,99839.72
2019-03-01T11:40:22.414Z,99846.19
2019-03-01T11:43:12.766Z,99844.55
2019-03-01T11:46:03.182Z,99842.64
2019-03-01T11:48:52.772Z,99849.98
2019-03-01T11:51:42.639Z,99844.27
2019-03-01T11:54:32.424Z,99844.86
2019-03-01T11:57:22.351Z,99843.05
2019-03-01T12:00:16.830Z,99840.98
2019-03-01T12:03:06.248Z,99837.55
2019-03-01T12:05:55.675Z,99842.19
2019-03-01T12:08:45.545Z,99843.08
2019-03-01T12:11:35.797Z,99844.64
2019-03-01T12:14:25.777Z,99863.37
2019-03-01T12:17:15.986Z,99871.24
2019-03-01T12:20:08.144Z,99886.73
2019-03-01T12:22:57.902Z,99885.91
2019-03-01T12:25:47.905Z,99885.64
2019-03-01T12:28:37.712Z,99881.56
2019-03-01T12:31:28.116Z,99877.83
2019-03-01T12:34:18.172Z,99877.33
2019-03-01T12:37:07.852Z,99876.88
2019-03-01T12:39:57.525Z,99875.97
2019-03-01T12:42:47.818Z,99875.00
2019-03-01T12:45:38.261Z,99870.33
2019-03-01T12:48:28.093Z,99876.28
2019-03-01T12:51:17.855Z,99877.11
2019-03-01T12:54:07.723Z,99874.96
2019-03-01T12:56:57.282Z,99873.23
2019-03-01T12:59:47.681Z,99867.89
2019-03-01T13:02:37.182Z,99875.10
2019-03-01T13:05:29.201Z,99875.52
2019-03-01T13:08:18.316Z,99880.70
2019-03-01T13:11:08.848Z,99884.80
2019-03-01T13:13:58.643Z,99879.69
2019-03-01T13:16:49.019Z,99876.97
2019-03-01T13:19:38.336Z,99874.30
2019-03-01T13:22:28.656Z,99878.66
2019-03-01T13:25:18.517Z,99875.98
2019-03-01T13:28:08.524Z,99874.33
2019-03-01T13:30:58.180Z,99882.98
2019-03-01T13:33:48.478Z,99889.77
2019-03-01T13:36:39.580Z,99897.36
2019-03-01T13:39:29.665Z,99899.05
2019-03-01T13:42:19.503Z,99907.45
2019-03-01T13:45:11.941Z,99906.25
2019-03-01T13:48:03.309Z,99903.41
2019-03-01T13:50:53.859Z,99908.27
2019-03-01T13:53:49.046Z,99917.36
2019-03-01T13:56:36.057Z,99914.84
2019-03-01T13:59:27.194Z,99916.49
2019-03-01T14:02:16.830Z,99929.74
2019-03-01T14:05:07.993Z,99920.83
2019-03-01T14:07:58.020Z,99928.61
2019-03-01T14:10:52.005Z,99934.99
2019-03-01T14:13:42.473Z,99933.80
2019-03-01T14:16:33.081Z,99943.05
2019-03-01T14:19:24.678Z,99949.12
2019-03-01T14:22:16.103Z,99947.49
2019-03-01T14:25:10.390Z,99949.08
2019-03-01T14:28:02.110Z,99953.98
2019-03-01T14:30:52.214Z,99953.94
2019-03-01T14:33:42.517Z,99957.47
2019-03-01T14:36:32.317Z,99962.21
2019-03-01T14:39:22.162Z,99965.27
2019-03-01T14:42:11.858Z,99965.17
2019-03-01T14:45:01.919Z,99972.97
2019-03-01T14:47:52.030Z,99975.57
2019-03-01T14:50:41.903Z,99975.61
2019-03-01T14:53:34.699Z,99976.72
2019-03-01T14:56:34.632Z,99980.30
2019-03-01T14:59:54.042Z,99983.33
2019-03-01T15:02:56.510Z,99990.50
2019-03-01T15:05:52.070Z,99980.45
2019-03-01T15:08:45.454Z,99980.16
2019-03-01T15:11:44.353Z,99981.55
2019-03-01T15:14:33.942Z,99981.08
2019-03-01T15:17:24.226Z,99982.28
2019-03-01T15:20:17.267Z,99984.53
2019-03-01T15:23:06.348Z,99982.66
2019-03-01T15:25:56.677Z,99988.69
2019-03-01T15:28:58.732Z,99991.88
2019-03-01T15:31:51.066Z,100000.29
2019-03-01T15:34:40.599Z,100005.02
2019-03-01T15:37:31.006Z,99999.92
2019-03-01T15:40:22.482Z,100013.86
2019-03-01T15:43:13.882Z,100015.16
2019-03-01T15:46:04.977Z,100018.06
2019-03-01T15:48:54.954Z,100029.86
2019-03-01T15:51:44.899Z,100027.37
2019-03-01T15:54:35.920Z,100033.50
2019-03-01T15:57:26.813Z,100064.69
2019-03-01T16:00:17.296Z,100051.23
2019-03-01T16:03:08.318Z,100051.73
2019-03-01T16:05:57.810Z,100061.52
2019-03-01T16:08:49.032Z,100058.11
2019-03-01T16:11:38.977Z,100065.94
2019-03-01T16:14:29.305Z,100072.20
2019-03-01T16:17:18.673Z,100070.79
2019-03-01T16:20:12.702Z,100080.48
2019-03-01T16:23:03.253Z,100080.89
2019-03-01T16:25:56.143Z,100084.24
2019-03-01T16:28:44.401Z,100085.13
2019-03-01T16:31:34.306Z,100089.38
2019-03-01T16:34:24.111Z,100094.70
2019-03-01T16:37:13.781Z,100102.36
2019-03-01T16:40:06.896Z,100104.23
2019-03-01T16:42:57.068Z,100115.52
2019-03-01T16:45:46.934Z,100117.48
2019-03-01T16:48:37.002Z,100124.61
2019-03-01T16:51:27.371Z,100126.80
2019-03-01T16:54:16.968Z,100132.13
2019-03-01T16:57:07.079Z,100141.52
2019-03-01T16:59:56.883Z,100145.19
2019-03-01T17:02:46.508Z,100151.75
2019-03-01T17:05:38.711Z,100160.50
2019-03-01T17:08:28.012Z,100164.11
2019-03-01T17:11:18.113Z,100168.55
2019-03-01T17:14:08.048Z,100171.53
2019-03-01T17:16:59.662Z,100176.17
2019-03-01T17:19:49.204Z,100185.19
2019-03-01T17:22:39.148Z,100188.03
2019-03-01T17:25:29.086Z,100190.19
2019-03-01T17:28:22.820Z,100200.45
2019-03-01T17:31:10.521Z,100199.77
2019-03-01T17:34:00.339Z,100204.14
2019-03-01T17:36:53.339Z,100206.09
2019-03-01T17:39:42.920Z,100215.66
2019-03-01T17:42:33.430Z,100222.11
2019-03-01T17:45:23.873Z,100226.33
2019-03-01T17:48:14.763Z,100239.12
2019-03-01T17:51:06.156Z,100244.83
2019-03-01T17:53:56.406Z,100246.02
2019-03-01T17:56:46.261Z,100253.41
2019-03-01T17:59:36.198Z,100258.80
2019-03-01T18:02:26.039Z,100267.72
2019-03-01T18:05:15.979Z,100267.63
2019-03-01T18:08:05.933Z,100265.36
2019-03-01T18:10:55.526Z,100272.45
2019-03-01T18:13:45.216Z,100282.25
2019-03-01T18:16:35.067Z,100282.30
2019-03-01T18:19:26.658Z,100285.22
2019-03-01T18:22:16.115Z,100293.52
2019-03-01T18:25:07.841Z,100295.89
2019-03-01T18:27:57.884Z,100306.88
2019-03-01T18:30:47.825Z,100307.81
2019-03-01T18:33:37.877Z,100318.27
2019-03-01T18:36:31.520Z,100315.83
2019-03-01T18:39:20.880Z,100324.54
2019-03-01T18:42:11.219Z,100323.19
2019-03-01T18:45:03.576Z,100327.13
2019-03-01T18:47:53.310Z,100323.86
2019-03-01T18:50:43.420Z,100328.22
2019-03-01T18:53:33.363Z,100330.91
2019-03-01T18:56:24.925Z,100331.00
2019-03-01T18:59:14.554Z,100337.89
2019-03-01T19:02:04.976Z,100337.09
2019-03-01T19:04:54.830Z,100343.01
2019-03-01T19:07:44.367Z,100341.34
2019-03-01T19:10:34.475Z,100345.09
2019-03-01T19:13:25.657Z,100351.62
2019-03-01T19:16:15.725Z,100354.42
2019-03-01T19:19:06.101Z,100355.25
2019-03-01T19:21:55.997Z,100364.45
2019-03-01T19:24:46.832Z,100368.23
2019-03-01T19:27:37.455Z,100375.95
2019-03-01T19:30:27.450Z,100370.17
2019-03-01T19:33:17.665Z,100374.53
2019-03-01T19:36:08.131Z,100386.02
2019-03-01T19:39:00.377Z,100397.17
2019-03-01T19:41:49.629Z,100399.03
2019-03-01T19:44:38.923Z,100405.90
2019-03-01T19:47:28.333Z,100411.38
2019-03-01T19:50:21.817Z,100416.68
2019-03-01T19:53:10.657Z,100410.36
2019-03-01T19:56:00.439Z,100423.80
2019-03-01T19:58:50.302Z,100428.94
2019-03-01T20:01:40.062Z,100435.75
2019-03-01T20:04:29.865Z,100432.74
2019-03-01T20:07:20.807Z,100440.88
2019-03-01T20:10:15.104Z,100445.83
2019-03-01T20:13:06.255Z,100442.09
2019-03-01T20:15:56.307Z,100443.00
2019-03-01T20:18:45.845Z,100445.27
2019-03-01T20:21:36.946Z,100447.81
2019-03-01T20:24:26.730Z,100458.95
2019-03-01T20:27:16.491Z,100471.86
2019-03-01T20:30:09.753Z,100475.44
2019-03-01T20:33:00.057Z,100476.78
2019-03-01T20:35:49.729Z,100483.05
2019-03-01T20:38:39.909Z,100484.84
2019-03-01T20:41:30.210Z,100488.14
2019-03-01T20:44:19.949Z,100480.19
2019-03-01T20:47:09.406Z,100483.58
2019-03-01T20:49:59.246Z,100484.77
2019-03-01T20:52:48.587Z,100487.55
2019-03-01T20:55:38.482Z,100483.08
2019-03-01T20:58:28.183Z,100493.60
2019-03-01T21:01:17.731Z,100493.81
2019-03-01T21:04:08.003Z,100499.30
2019-03-01T21:06:58.047Z,100499.27
2019-03-01T21:09:48.099Z,100499.95
2019-03-01T21:12:37.515Z,100508.59
2019-03-01T21:15:27.131Z,100505.28
2019-03-01T21:18:16.923Z,100507.16
2019-03-01T21:21:07.799Z,100506.59
2019-03-01T21:23:57.650Z,100506.96
2019-03-01T21:26:51.254Z,100503.64
2019-03-01T21:29:39.956Z,100505.44
2019-03-01T21:32:30.654Z,100503.92
2019-03-01T21:35:20.637Z,100507.02
2019-03-01T21:38:10.666Z,100514.52
2019-03-01T21:41:01.636Z,100513.17
2019-03-01T21:43:51.964Z,100513.62
2019-03-01T21:46:43.219Z,100515.85
2019-03-01T21:49:32.745Z,100514.66
2019-03-01T21:52:22.972Z,100517.48
2019-03-01T21:55:15.522Z,100518.44
2019-03-01T21:58:06.663Z,100516.38
2019-03-01T22:00:56.541Z,100519.69
2019-03-01T22:03:46.417Z,100519.19
2019-03-01T22:06:35.881Z,100522.31
2019-03-01T22:09:25.902Z,100517.47
2019-03-01T22:12:15.801Z,100523.08
2019-03-01T22:15:06.478Z,100516.36
2019-03-01T22:17:56.943Z,100514.69
2019-03-01T22:20:46.377Z,100511.81
2019-03-01T22:23:35.736Z,100512.23
2019-03-01T22:26:25.999Z,100512.85
2019-03-01T22:29:16.057Z,100513.80
2019-03-01T22:32:07.369Z,100519.59
2019-03-01T22:34:57.196Z,100522.48
2019-03-01T22:37:47.753Z,100528.25
2019-03-01T22:40:38.359Z,100529.59
2019-03-01T22:43:27.767Z,100539.95
2019-03-01T22:46:21.079Z,100541.39
2019-03-01T22:49:09.316Z,100539.84
2019-03-01T22:51:59.505Z,100545.42
2019-03-01T22:54:49.876Z,100542.52
2019-03-01T22:57:40.201Z,100539.63
2019-03-01T23:01:17.295Z,100534.88
2019-03-01T23:04:07.830Z,100536.55
2019-03-01T23:06:58.154Z,100531.98
2019-03-01T23:09:47.906Z,100534.05
2019-03-01T23:12:40.532Z,100533.33
2019-03-01T23:15:31.893Z,100528.14
2019-03-01T23:18:21.495Z,100530.64
2019-03-01T23:21:11.332Z,100532.28
2019-03-01T23:24:01.145Z,100527.02
2019-03-01T23:26:53.620Z,100525.80
2019-03-01T23:29:42.417Z,100539.73
2019-03-01T23:32:32.584Z,100539.84
2019-03-01T23:35:23.017Z,100534.44
2019-03-01T23:38:14.913Z,100540.20
2019-03-01T23:41:07.777Z,100538.55
2019-03-01T23:43:56.573Z,100536.37
2019-03-01T23:46:46.431Z,100534.28
2019-03-01T23:49:36.384Z,100533.45
2019-03-01T23:52:26.168Z,100537.86
2019-03-01T23:55:18.998Z,100544.91
2019-03-01T23:58:07.828Z,100542.61
